Terminal Aerodrome Forecast
Issued by NWS Portland, OR

Home | Current Version | Previous Version | Text Only | Print | Product List | Glossary On
Versions: 1 2 3 4 5 6 7 8 9 10 11 12 13 14 15 16 17 18
000
FTUS46 KPQR 201737
TAFAST
TAF
KAST 201737Z 2018/2118 32010KT 6SM -SHRA SCT008 BKN035 OVC045
     FM202000 29008KT P6SM SCT015 BKN035 OVC050
     FM210000 29005KT P6SM SCT050 BKN100
     FM210200 10005KT P6SM BKN250
     FM210900 12005KT 6SM -RA OVC025=

USA.gov is the U.S. government's official web portal to all federal, state and local government web resources and services.